createdAt,value
2023-03-10T00:02:36.583Z,2.97
2023-03-10T00:06:21.238Z,3.28
2023-03-10T00:10:03.443Z,3.20
2023-03-10T00:13:45.350Z,2.60
2023-03-10T00:17:27.955Z,2.50
2023-03-10T00:21:15.359Z,1.90
2023-03-10T00:24:57.168Z,2.58
2023-03-10T00:28:39.386Z,2.00
2023-03-10T00:32:21.178Z,2.33
2023-03-10T00:36:08.987Z,2.80
2023-03-10T00:39:52.422Z,3.63
2023-03-10T00:43:35.175Z,3.10
2023-03-10T00:47:16.963Z,2.50
2023-03-10T00:50:59.540Z,2.72
2023-03-10T00:54:42.128Z,2.90
2023-03-10T00:58:23.899Z,3.22
2023-03-10T01:02:05.875Z,3.03
2023-03-10T01:05:49.350Z,3.47
2023-03-10T01:09:31.094Z,4.03
2023-03-10T01:13:14.268Z,2.95
2023-03-10T01:16:56.083Z,3.72
2023-03-10T01:20:37.999Z,4.40
2023-03-10T01:24:19.971Z,4.57
2023-03-10T01:28:01.705Z,4.35
2023-03-10T01:31:43.566Z,4.72
2023-03-10T01:35:25.689Z,4.60
2023-03-10T01:39:07.468Z,4.18
2023-03-10T01:42:49.221Z,4.38
2023-03-10T01:46:59.298Z,3.85
2023-03-10T01:50:45.321Z,3.97
2023-03-10T01:54:33.745Z,3.25
2023-03-10T01:58:17.779Z,3.55
2023-03-10T02:02:01.629Z,3.83
2023-03-10T02:05:48.464Z,3.63
2023-03-10T02:09:31.063Z,3.33
2023-03-10T02:13:12.767Z,3.38
2023-03-10T02:16:54.590Z,3.00
2023-03-10T02:21:35.113Z,3.60
2023-03-10T02:25:22.074Z,3.50
2023-03-10T02:29:07.392Z,3.40
2023-03-10T02:32:53.226Z,3.33
2023-03-10T02:36:34.989Z,3.28
2023-03-10T02:40:25.507Z,2.85
2023-03-10T02:44:13.696Z,2.28
2023-03-10T02:47:55.439Z,1.45
2023-03-10T02:51:41.501Z,1.60
2023-03-10T02:55:23.269Z,1.70
2023-03-10T02:59:07.269Z,1.40
2023-03-10T03:02:49.043Z,1.40
2023-03-10T03:06:31.064Z,1.65
2023-03-10T03:10:12.848Z,1.70
2023-03-10T03:13:54.798Z,1.80
2023-03-10T03:17:36.563Z,1.80
2023-03-10T03:21:18.428Z,1.70
2023-03-10T03:25:00.184Z,1.75
2023-03-10T03:28:42.596Z,2.47
2023-03-10T03:32:24.454Z,1.63
2023-03-10T03:36:06.653Z,1.58
2023-03-10T03:39:48.489Z,1.55
2023-03-10T03:43:30.304Z,1.63
2023-03-10T03:47:12.066Z,1.58
2023-03-10T03:50:53.859Z,1.52
2023-03-10T03:54:35.728Z,1.65
2023-03-10T03:58:17.549Z,1.80
2023-03-10T04:01:59.344Z,1.70
2023-03-10T04:05:41.462Z,1.58
2023-03-10T04:09:23.221Z,1.70
2023-03-10T04:13:04.990Z,1.60
2023-03-10T04:16:46.786Z,1.95
2023-03-10T04:20:28.572Z,1.80
2023-03-10T04:24:10.341Z,1.73
2023-03-10T04:27:52.128Z,1.73
2023-03-10T04:31:33.902Z,1.77
2023-03-10T04:35:15.701Z,1.50
2023-03-10T04:38:57.568Z,1.70
2023-03-10T04:42:39.318Z,1.60
2023-03-10T04:46:21.183Z,1.70
2023-03-10T04:50:03.344Z,1.60
2023-03-10T04:53:45.137Z,1.70
2023-03-10T04:57:27.448Z,1.70
2023-03-10T05:01:11.070Z,1.70
2023-03-10T05:04:52.947Z,1.70
2023-03-10T05:08:34.704Z,1.88
2023-03-10T05:12:16.457Z,1.80
2023-03-10T05:15:58.531Z,1.80
2023-03-10T05:19:40.327Z,1.83
2023-03-10T05:23:22.438Z,1.80
2023-03-10T05:27:04.356Z,1.90
2023-03-10T05:30:46.065Z,1.63
2023-03-10T05:34:28.767Z,1.60
2023-03-10T05:38:10.484Z,1.27
2023-03-10T05:41:52.210Z,1.50
2023-03-10T05:45:34.091Z,1.50
2023-03-10T05:49:15.854Z,1.33
2023-03-10T05:52:57.600Z,1.45
2023-03-10T05:56:39.352Z,1.40
2023-03-10T06:00:21.461Z,1.50
2023-03-10T06:04:03.861Z,1.20
2023-03-10T06:07:46.138Z,1.10
2023-03-10T06:11:28.017Z,1.00
2023-03-10T06:15:10.188Z,1.02
2023-03-10T06:18:56.034Z,1.10
2023-03-10T06:22:37.868Z,1.00
2023-03-10T06:26:19.612Z,1.02
2023-03-10T06:30:01.431Z,0.70
2023-03-10T06:33:43.727Z,1.10
2023-03-10T06:37:25.637Z,1.10
2023-03-10T06:41:08.030Z,1.00
2023-03-10T06:44:49.776Z,0.88
2023-03-10T06:48:31.642Z,1.02
2023-03-10T06:52:13.444Z,1.00
2023-03-10T06:56:07.178Z,0.80
2023-03-10T06:59:49.041Z,0.88
2023-03-10T07:03:30.880Z,0.52
2023-03-10T07:07:13.748Z,0.90
2023-03-10T07:10:56.487Z,0.85
2023-03-10T07:14:38.183Z,0.90
2023-03-10T07:18:20.144Z,0.80
2023-03-10T07:22:01.961Z,0.60
2023-03-10T07:25:43.673Z,1.08
2023-03-10T07:29:25.529Z,0.63
2023-03-10T07:33:07.438Z,1.05
2023-03-10T07:36:49.234Z,1.10
2023-03-10T07:40:31.291Z,0.88
2023-03-10T07:44:13.006Z,0.80
2023-03-10T07:47:55.157Z,0.88
2023-03-10T07:51:37.991Z,0.90
2023-03-10T07:55:19.730Z,0.50
2023-03-10T07:59:01.511Z,0.77
2023-03-10T08:02:43.277Z,1.30
2023-03-10T08:06:27.877Z,1.00
2023-03-10T08:10:10.539Z,0.90
2023-03-10T08:13:52.327Z,2.42
2023-03-10T08:17:34.206Z,1.70
2023-03-10T08:21:16.021Z,1.00
2023-03-10T08:24:59.455Z,0.80
2023-03-10T08:28:42.207Z,0.88
2023-03-10T08:32:24.065Z,0.80
2023-03-10T08:36:15.263Z,0.88
2023-03-10T08:39:59.165Z,0.88
2023-03-10T08:43:41.104Z,1.55
2023-03-10T08:47:23.476Z,1.35
2023-03-10T08:51:06.958Z,1.60
2023-03-10T08:54:48.898Z,1.40
2023-03-10T08:58:30.803Z,1.23
2023-03-10T09:02:15.175Z,1.10
2023-03-10T09:05:57.071Z,0.80
2023-03-10T09:09:38.823Z,1.30
2023-03-10T09:13:20.605Z,1.23
2023-03-10T09:17:02.501Z,1.13
2023-03-10T09:20:45.328Z,1.40
2023-03-10T09:24:27.358Z,1.05
2023-03-10T09:28:12.275Z,1.20
2023-03-10T09:31:54.081Z,1.30
2023-03-10T09:35:39.377Z,1.30
2023-03-10T09:39:23.768Z,1.35
2023-03-10T09:43:07.845Z,1.27
2023-03-10T09:47:10.966Z,1.40
2023-03-10T09:50:56.505Z,1.55
2023-03-10T09:54:57.280Z,1.63
2023-03-10T09:58:43.979Z,0.80
2023-03-10T10:02:32.124Z,1.20
2023-03-10T10:06:19.398Z,1.20
2023-03-10T10:10:18.594Z,1.17
2023-03-10T10:14:38.378Z,0.98
2023-03-10T10:18:31.564Z,0.85
2023-03-10T10:22:27.606Z,1.05
2023-03-10T10:26:18.861Z,0.80
2023-03-10T10:30:32.508Z,0.70
2023-03-10T10:34:22.468Z,0.77
2023-03-10T10:38:09.953Z,0.70
2023-03-10T10:41:51.784Z,0.95
2023-03-10T10:45:39.521Z,1.00
2023-03-10T10:49:31.586Z,0.95
2023-03-10T10:53:13.607Z,1.00
2023-03-10T10:57:00.983Z,1.30
2023-03-10T11:00:42.763Z,1.20
2023-03-10T11:04:26.771Z,1.50
2023-03-10T11:08:28.249Z,1.00
2023-03-10T11:12:32.094Z,1.20
2023-03-10T11:16:34.505Z,1.27
2023-03-10T11:20:32.837Z,2.40
2023-03-10T11:24:27.984Z,1.40
2023-03-10T11:28:40.708Z,1.90
2023-03-10T11:32:41.296Z,1.80
2023-03-10T11:36:55.347Z,1.20
2023-03-10T11:40:44.185Z,1.30
2023-03-10T11:45:11.908Z,1.55
2023-03-10T11:49:10.762Z,1.67
2023-03-10T11:53:00.485Z,1.13
2023-03-10T11:56:42.833Z,1.50
2023-03-10T12:00:34.274Z,1.20
2023-03-10T12:04:45.113Z,1.73
2023-03-10T12:08:33.049Z,1.20
2023-03-10T12:12:19.560Z,1.10
2023-03-10T12:16:03.954Z,1.80
2023-03-10T12:20:14.766Z,1.35
2023-03-10T12:23:58.893Z,1.65
2023-03-10T12:28:18.340Z,1.50
2023-03-10T12:32:00.851Z,1.40
2023-03-10T12:35:49.471Z,1.60
2023-03-10T12:39:42.452Z,1.50
2023-03-10T12:43:56.030Z,2.15
2023-03-10T12:47:52.619Z,1.20
2023-03-10T12:51:46.291Z,1.40
2023-03-10T12:55:28.996Z,2.03
2023-03-10T12:59:30.344Z,2.15
2023-03-10T13:03:28.101Z,2.40
2023-03-10T13:07:15.483Z,2.03
2023-03-10T13:10:59.188Z,2.10
2023-03-10T13:14:43.209Z,2.05
2023-03-10T13:18:25.171Z,2.60
2023-03-10T13:22:07.065Z,2.20
2023-03-10T13:26:14.650Z,1.20
2023-03-10T13:30:02.568Z,2.83
2023-03-10T13:33:53.243Z,1.60
2023-03-10T13:37:35.535Z,1.60
2023-03-10T13:41:17.273Z,1.40
2023-03-10T13:44:59.077Z,1.20
2023-03-10T13:48:41.449Z,1.35
2023-03-10T13:52:29.116Z,2.08
2023-03-10T13:56:21.666Z,1.52
2023-03-10T14:00:08.572Z,1.10
2023-03-10T14:03:56.650Z,1.60
2023-03-10T14:11:39.226Z,1.48
2023-03-10T14:15:23.212Z,1.83
2023-03-10T14:19:04.982Z,2.20
2023-03-10T14:22:47.821Z,1.60
2023-03-10T14:26:29.775Z,1.85
2023-03-10T14:30:41.680Z,2.20
2023-03-10T14:34:23.556Z,2.30
2023-03-10T14:38:05.647Z,1.35
2023-03-10T14:41:47.792Z,1.50
2023-03-10T14:45:35.092Z,1.58
2023-03-10T14:49:17.055Z,1.35
2023-03-10T14:52:58.878Z,2.00
2023-03-10T14:56:41.152Z,1.90
2023-03-10T15:00:23.336Z,1.88
2023-03-10T15:04:05.497Z,2.30
2023-03-10T15:07:48.898Z,1.40
2023-03-10T15:11:37.329Z,1.77
2023-03-10T15:15:25.114Z,1.33
2023-03-10T15:19:07.158Z,2.83
2023-03-10T15:22:50.115Z,3.80
2023-03-10T15:26:32.189Z,2.15
2023-03-10T15:30:25.887Z,2.10
2023-03-10T15:34:07.969Z,1.65
2023-03-10T15:37:51.093Z,1.60
2023-03-10T15:41:37.746Z,1.60
2023-03-10T15:45:19.723Z,1.30
2023-03-10T15:49:04.389Z,1.30
2023-03-10T15:52:54.701Z,2.72
2023-03-10T15:56:36.417Z,1.48
2023-03-10T16:00:20.557Z,1.80
2023-03-10T16:04:05.892Z,3.08
2023-03-10T16:07:47.977Z,1.75
2023-03-10T16:11:29.748Z,1.50
2023-03-10T16:15:12.681Z,2.00
2023-03-10T16:18:54.862Z,1.30
2023-03-10T16:22:40.667Z,1.33
2023-03-10T16:26:24.009Z,1.55
2023-03-10T16:30:06.577Z,1.80
2023-03-10T16:33:50.665Z,2.05
2023-03-10T16:37:32.459Z,2.33
2023-03-10T16:41:14.561Z,1.90
2023-03-10T16:44:56.849Z,1.65
2023-03-10T16:48:44.739Z,1.67
2023-03-10T16:52:26.541Z,2.13
2023-03-10T16:56:08.528Z,1.58
2023-03-10T16:59:50.226Z,3.78
2023-03-10T17:03:33.816Z,3.00
2023-03-10T17:07:15.729Z,3.22
2023-03-10T17:10:57.584Z,4.07
2023-03-10T17:14:39.315Z,2.30
2023-03-10T17:18:21.081Z,3.47
2023-03-10T17:22:02.972Z,1.90
2023-03-10T17:25:45.649Z,1.95
2023-03-10T17:29:27.409Z,2.45
2023-03-10T17:33:09.120Z,2.40
2023-03-10T17:36:51.439Z,1.60
2023-03-10T17:40:33.844Z,1.70
2023-03-10T17:44:16.363Z,4.50
2023-03-10T17:47:58.124Z,2.58
2023-03-10T17:51:43.523Z,3.00
2023-03-10T17:55:25.489Z,3.00
2023-03-10T17:59:07.288Z,3.03
2023-03-10T18:02:49.140Z,4.35
2023-03-10T18:06:33.882Z,10.75
2023-03-10T18:10:16.456Z,14.75
2023-03-10T18:13:58.633Z,11.05
2023-03-10T18:17:40.485Z,6.55
2023-03-10T18:21:23.186Z,9.00
2023-03-10T18:25:05.330Z,12.57
2023-03-10T18:28:47.383Z,11.73
2023-03-10T18:32:34.158Z,12.75
2023-03-10T18:36:17.555Z,10.80
2023-03-10T18:40:04.363Z,11.43
2023-03-10T18:43:46.401Z,19.77
2023-03-10T18:47:28.414Z,18.98
2023-03-10T18:51:11.141Z,17.75
2023-03-10T18:54:53.242Z,30.98
2023-03-10T18:58:37.590Z,26.02
2023-03-10T19:02:19.356Z,22.52
2023-03-10T19:06:01.533Z,15.38
2023-03-10T19:09:43.727Z,15.93
2023-03-10T19:13:27.976Z,14.88
2023-03-10T19:17:09.700Z,19.55
2023-03-10T19:20:57.810Z,9.85
2023-03-10T19:24:39.760Z,12.23
2023-03-10T19:28:21.597Z,14.05
2023-03-10T19:32:03.496Z,17.05
2023-03-10T19:35:45.725Z,22.88
2023-03-10T19:39:27.496Z,27.40
2023-03-10T19:43:09.165Z,26.20
2023-03-10T19:46:51.053Z,21.27
2023-03-10T19:50:32.795Z,16.85
2023-03-10T19:54:14.762Z,14.48
2023-03-10T19:57:56.556Z,13.57
2023-03-10T20:01:40.344Z,14.20
2023-03-10T20:05:25.540Z,13.57
2023-03-10T20:09:10.677Z,16.08
2023-03-10T20:12:52.505Z,21.08
2023-03-10T20:16:34.762Z,29.02
2023-03-10T20:20:19.948Z,23.58
2023-03-10T20:24:02.006Z,24.85
2023-03-10T20:27:45.543Z,19.60
2023-03-10T20:31:33.721Z,22.27
2023-03-10T20:35:16.542Z,27.65
2023-03-10T20:38:59.457Z,28.75
2023-03-10T20:42:41.945Z,30.77
2023-03-10T20:46:24.851Z,31.00
2023-03-10T20:50:08.925Z,25.63
2023-03-10T20:53:51.970Z,27.63
2023-03-10T20:57:34.889Z,27.17
2023-03-10T21:01:20.157Z,29.45
2023-03-10T21:05:04.999Z,29.83
2023-03-10T21:08:47.755Z,26.33
2023-03-10T21:12:29.617Z,24.73
2023-03-10T21:16:11.567Z,25.02
2023-03-10T21:19:54.239Z,25.23
2023-03-10T21:23:39.434Z,20.80
2023-03-10T21:27:21.319Z,19.00
2023-03-10T21:31:03.320Z,15.57
2023-03-10T21:34:45.524Z,12.35
2023-03-10T21:38:27.397Z,15.25
2023-03-10T21:42:13.086Z,18.33
2023-03-10T21:45:54.956Z,14.40
2023-03-10T21:49:37.163Z,21.05
2023-03-10T21:53:19.102Z,15.25
2023-03-10T21:57:01.115Z,11.23
2023-03-10T22:00:42.864Z,11.00
2023-03-10T22:04:24.589Z,10.85
2023-03-10T22:08:07.196Z,11.52
2023-03-10T22:11:48.939Z,17.73
2023-03-10T22:15:30.860Z,14.68
2023-03-10T22:19:12.580Z,14.95
2023-03-10T22:22:54.888Z,29.27
2023-03-10T22:26:37.010Z,16.30
2023-03-10T22:30:20.233Z,14.10
2023-03-10T22:34:01.967Z,17.55
2023-03-10T22:37:44.178Z,15.95
2023-03-10T22:41:27.835Z,18.20
2023-03-10T22:45:24.152Z,18.65
2023-03-10T22:49:05.924Z,18.35
2023-03-10T22:52:47.901Z,21.27
2023-03-10T22:56:29.612Z,17.25
2023-03-10T23:00:21.299Z,14.73
2023-03-10T23:04:03.334Z,12.80
2023-03-10T23:07:45.645Z,12.15
2023-03-10T23:11:27.458Z,13.90
2023-03-10T23:15:18.898Z,24.63
2023-03-10T23:19:08.653Z,54.67
2023-03-10T23:22:50.458Z,35.67
2023-03-10T23:26:35.011Z,16.35
2023-03-10T23:30:17.342Z,19.58
2023-03-10T23:33:59.388Z,20.00
2023-03-10T23:37:41.407Z,16.77
2023-03-10T23:41:23.327Z,14.23
2023-03-10T23:45:07.490Z,15.48
2023-03-10T23:48:49.467Z,16.70
2023-03-10T23:52:31.391Z,11.93
2023-03-10T23:56:13.382Z,13.32
2023-03-10T23:59:55.170Z,13.80
